Latest Coastal Weather Observations for Port Macquarie Airport

IDN60701

Issued at 3:55 am EST Thursday 24 April 2014 (issued every 10 minutes, with the page automatically refreshed every 10 minutes)

About coastal observations | Map of coastal stations | Coastal observations for NSW | Marine services | Other Formats
Station Details ID: 060139 Name: PORT MACQUARIE AIRPORT AWS Lat: -31.43 Lon: 152.87 Height: 4.2 m
Data from the previous 72 hours. | See also: Recent months at Port Macquarie Airport
Date/Time
EST
Temp

°C
Wind Pressure Rain
since 9am
mm
Weather Cloud Vis
km
Sea
Height
m
Swell
Dir
 
Speed
knots
Gust
knots
hPa Trend Height
m
Period
s
Dir
24/03:30am 14.5 NW 3 5 1014.2 - 0.0 - - 9 - - - -
24/03:00am 15.2 NW 3 4 1014.3 - 0.0 - - 10 - - - -
24/02:30am 15.0 WNW 3 5 1014.6 - 0.0 - - 10 - - - -
24/02:00am 15.2 NW 3 4 1014.9 - 0.0 - - 9 - - - -
24/01:38am 14.9 CALM 0 0 1015.1 - 0.0 - - 10 - - - -
24/01:30am 15.2 CALM 0 0 1015.1 - 0.0 - - 10 - - - -
24/01:19am 15.3 CALM 0 0 1015.2 - 0.0 - - 3 - - - -
24/01:00am 15.7 CALM 0 0 1015.4 - 0.0 - - 10 - - - -
24/12:36am 16.2 CALM 0 0 1015.3 - 0.0 - - 10 - - - -
24/12:30am 16.1 CALM 0 0 1015.3 - 0.0 - - 10 - - - -
24/12:01am 16.2 CALM 0 0 1015.5 - 0.0 - - 5 - - - -
24/12:00am 16.2 WNW 0 0 1015.5 - 0.0 - - 10 - - - -
 
Date/Time
EST
Temp

°C
Wind Pressure Rain
since 9am
mm
Weather Cloud Vis
km
Sea
Height
m
Swell
Dir
 
Speed
knots
Gust
knots
hPa Trend Height
m
Period
s
Dir
23/11:44pm 15.9 CALM 0 0 1015.6 - 0.0 - - 10 - - - -
23/11:30pm 15.9 CALM 0 0 1015.6 - 0.0 - - 2 - - - -
23/11:24pm 16.1 CALM 0 0 1015.7 - 0.0 - - 3 - - - -
23/11:00pm 16.5 CALM 0 0 1015.7 - 0.0 - - 6 - - - -
23/10:30pm 16.8 CALM 0 1 1015.8 - 0.0 - - 10 - - - -
23/10:00pm 16.7 CALM 0 3 1016.1 - 0.0 - - 10 - - - -
23/09:30pm 17.3 SW 3 4 1016.0 - 0.0 - Partly cloudy 10 - - - -
23/09:00pm 17.7 SW 2 3 1016.1 - 0.0 - - 10 - - - -
23/08:30pm 18.8 NE 4 5 1016.1 - 0.0 - Partly cloudy 10 - - - -
23/08:00pm 18.6 E 3 4 1016.0 - 0.0 - - 10 - - - -
23/07:30pm 18.8 SW 4 5 1015.9 - 0.0 - - 10 - - - -
23/07:00pm 19.8 SSW 2 4 1015.7 - 0.0 - - 10 - - - -
23/06:30pm 20.3 SSW 4 5 1015.5 - 0.0 - Partly cloudy 10 - - - -
23/06:00pm 21.9 CALM 0 0 1015.2 - 0.0 - Mostly cloudy 10 - - - -
23/05:30pm 23.0 NNE 4 6 1014.9 - 0.0 - - 10 - - - -
23/05:00pm 23.5 N 3 4 1014.8 - 0.0 - - 10 - - - -
23/04:30pm 24.5 NNE 7 8 1014.6 - 0.0 - - 10 - - - -
23/04:00pm 25.4 NE 6 9 1014.5 - 0.0 - Partly cloudy 10 - - - -
23/03:30pm 25.7 NE 7 12 1014.4 - 0.0 - Partly cloudy 10 - - - -
23/03:00pm 24.6 NE 9 12 1014.1 - 0.0 - - 10 - - - -
23/02:30pm 25.0 NE 11 15 1014.3 - 0.0 - - 10 - - - -
23/02:00pm 26.8 ENE 11 13 1014.4 - 0.0 - Partly cloudy 10 - - - -
23/01:30pm 27.1 NE 9 12 1014.3 - 0.0 - - 10 - - - -
23/01:00pm 27.1 NE 9 11 1014.5 - 0.0 - - 10 - - - -
23/12:30pm 27.5 NE 7 10 1015.1 - 0.0 - - 10 - - - -
23/12:00pm 26.7 ENE 7 10 1015.7 - 0.0 - - 10 - - - -
23/11:30am 26.5 ENE 7 9 1016.1 - 0.0 - - 10 - - - -
23/11:00am 26.2 NNE 5 7 1016.7 - 0.0 - - 10 - - - -
23/10:30am 25.4 N 4 6 1017.3 - 0.0 - - 10 - - - -
23/10:00am 24.3 NNE 4 6 1017.6 - 0.0 - - 10 - - - -
23/09:30am 22.9 NW 3 5 1017.8 - 0.0 - Partly cloudy 10 - - - -
23/09:00am 20.4 CALM 0 3 1018.0 - 0.0 - Mostly cloudy 10 - - - -
23/08:30am 19.3 W 4 5 1018.1 - 0.0 - Partly cloudy 10 - - - -
23/08:00am 17.9 CALM 0 4 1017.9 - 0.0 - - 10 - - - -
23/07:30am 17.0 NW 1 4 1017.9 - 0.0 - Partly cloudy 10 - - - -
23/07:00am 16.6 CALM 0 0 1017.7 - 0.0 - Cloudy 10 - - - -
23/06:30am 16.6 N 2 4 1017.5 - 0.0 - Partly cloudy 10 - - - -
23/06:00am 16.3 W 1 4 1017.1 - 0.0 - Cloudy 10 - - - -
23/05:30am 16.1 CALM 0 0 1016.7 - 0.0 - Partly cloudy 10 - - - -
23/05:00am 15.8 CALM 0 0 1016.8 - 0.0 - Partly cloudy 10 - - - -
23/04:30am 15.4 CALM 0 0 1016.5 - 0.0 - Partly cloudy 10 - - - -
23/04:00am 15.4 CALM 0 0 1016.5 - 0.0 - Partly cloudy 10 - - - -
23/03:30am 15.7 CALM 0 0 1016.5 - 0.0 - Partly cloudy 10 - - - -
23/03:00am 15.2 CALM 0 0 1016.4 - 0.0 - Cloudy 10 - - - -
23/02:30am 14.8 CALM 0 3 1016.4 - 0.0 - Partly cloudy 10 - - - -
23/02:15am 15.0 CALM 0 0 1016.4 - 0.0 - - 10 - - - -
23/02:00am 16.0 CALM 0 3 1016.4 - 0.0 - - 0.4 - - - -
23/01:30am 14.8 CALM 0 0 1016.4 - 0.0 - - 0.5 - - - -
23/01:11am 15.7 CALM 0 3 1016.5 - 0.0 - - 5 - - - -
23/01:02am 15.7 W 2 4 1016.5 - 0.0 - - 10 - - - -
23/01:00am 15.7 SW 2 4 1016.5 - 0.0 - - 7 - - - -
23/12:30am 15.3 SSW 1 4 1016.5 - 0.0 - - 5 - - - -
23/12:00am 16.4 SW 1 3 1016.5 - 0.0 - - 10 - - - -
 
Date/Time
EST
Temp

°C
Wind Pressure Rain
since 9am
mm
Weather Cloud Vis
km
Sea
Height
m
Swell
Dir
 
Speed
knots
Gust
knots
hPa Trend Height
m
Period
s
Dir
22/11:30pm 17.8 CALM 0 0 1016.5 - 0.0 - - 10 - - - -
22/11:00pm 17.9 NW 4 5 1016.8 - 0.0 - - 10 - - - -
22/10:30pm 18.5 N 3 5 1017.0 - 0.0 - - 10 - - - -
22/10:00pm 18.6 NW 3 5 1017.0 - 0.0 - - 10 - - - -
22/09:30pm 19.1 NW 4 5 1017.0 - 0.0 - - 10 - - - -
22/09:00pm 19.9 N 4 6 1016.9 - 0.0 - - 10 - - - -
22/08:30pm 20.8 NNE 5 6 1016.8 - 0.0 - - 10 - - - -
22/08:00pm 20.8 NNE 4 5 1016.8 - 0.0 - - 10 - - - -
22/07:30pm 21.6 N 3 5 1016.8 - 0.0 - - 10 - - - -
22/07:00pm 21.2 N 5 7 1016.7 - 0.0 - - 10 - - - -
22/06:30pm 21.2 CALM 0 0 1016.5 - 0.0 - - 10 - - - -
22/06:00pm 22.4 CALM 0 0 1016.2 - 0.0 - - 10 - - - -
22/05:30pm 23.2 NNE 4 6 1016.0 - 0.0 - - 10 - - - -
22/05:00pm 24.3 NE 5 7 1015.7 - 0.0 - - 10 - - - -
22/04:30pm 25.3 NE 5 8 1015.6 - 0.0 - - 10 - - - -
22/04:00pm 25.7 NE 8 10 1015.6 - 0.0 - - 10 - - - -
22/03:30pm 26.5 NE 9 12 1015.7 - 0.0 - - 10 - - - -
22/03:00pm 26.1 ENE 9 13 1015.7 - 0.0 - - 10 - - - -
22/02:30pm 26.4 ENE 10 13 1015.7 - 0.0 - - 10 - - - -
22/02:00pm 27.1 ENE 11 15 1015.7 - 0.0 - - 10 - - - -
22/01:30pm 28.2 N 8 12 1015.9 - 0.0 - - 10 - - - -
22/01:00pm 27.6 N 8 11 1016.2 - 0.0 - - 10 - - - -
22/12:30pm 27.5 N 9 14 1016.6 - 0.0 - - 10 - - - -
22/12:00pm 27.9 N 8 12 1017.1 - 0.0 - - 10 - - - -
22/11:30am 26.4 N 9 11 1017.8 - 0.0 - - 10 - - - -
22/11:00am 25.8 N 9 13 1018.2 - 0.0 - - 10 - - - -
22/10:30am 24.8 N 8 11 1018.5 - 0.0 - - 10 - - - -
22/10:00am 23.0 NW 5 9 1019.0 - 0.0 - - 10 - - - -
22/09:30am 20.8 NNW 6 8 1019.3 - 0.0 - - 10 - - - -
22/09:00am 19.7 NNW 6 7 1019.7 - 0.0 - - 10 - - - -
22/08:30am 18.2 NW 5 6 1019.8 - 0.0 - - 10 - - - -
22/08:00am 16.4 NW 4 6 1019.9 - 0.0 - - 10 - - - -
22/07:30am 14.4 WNW 2 5 1020.0 - 0.0 - Partly cloudy 10 - - - -
22/07:00am 12.9 CALM 0 0 1019.8 - 0.0 - - 10 - - - -
22/06:30am 13.1 CALM 0 0 1019.6 - 0.0 - - 10 - - - -
22/06:00am 13.0 CALM 0 0 1019.5 - 0.0 - Partly cloudy 10 - - - -
22/05:30am 13.2 CALM 0 3 1019.5 - 0.0 - Partly cloudy 10 - - - -
22/05:00am 13.5 W 3 4 1019.5 - 0.0 - - 10 - - - -
22/04:30am 13.4 W 2 3 1019.3 - 0.0 - - 10 - - - -
22/04:00am 13.9 CALM 0 3 1019.2 - 0.0 - - 10 - - - -
22/03:30am 14.2 W 3 5 1019.1 - 0.0 - - 10 - - - -
22/03:00am 14.2 CALM 0 4 1019.3 - 0.0 - - 10 - - - -
22/02:30am 14.7 WNW 3 5 1019.4 - 0.0 - - 10 - - - -
22/02:00am 15.3 W 4 5 1019.5 - 0.0 - - 10 - - - -
22/01:30am 15.6 W 3 5 1019.9 - 0.0 - Partly cloudy 10 - - - -
22/01:00am 15.2 WNW 1 3 1020.2 - 0.0 - Partly cloudy 10 - - - -
22/12:30am 15.0 WNW 4 6 1020.1 - 0.0 - - 10 - - - -
22/12:00am 15.7 WNW 3 5 1020.1 - 0.0 - - 10 - - - -
 
Date/Time
EST
Temp

°C
Wind Pressure Rain
since 9am
mm
Weather Cloud Vis
km
Sea
Height
m
Swell
Dir
 
Speed
knots
Gust
knots
hPa Trend Height
m
Period
s
Dir
21/11:30pm 16.1 W 3 5 1020.2 - 0.0 - Partly cloudy 10 - - - -
21/11:00pm 15.5 CALM 0 0 1020.4 - 0.0 - Cloudy 10 - - - -
21/10:30pm 15.1 CALM 0 2 1020.5 - 0.0 - Cloudy 10 - - - -
21/10:00pm 14.1 WNW 3 7 1020.7 - 0.0 - Cloudy 10 - - - -
21/09:30pm 12.6 CALM 0 0 1020.9 - 0.0 - - 10 - - - -
21/09:00pm 13.0 CALM 0 0 1020.8 - 0.0 - - 10 - - - -
21/08:30pm 13.9 CALM 0 4 1020.7 - 0.0 - - 10 - - - -
21/08:00pm 13.8 CALM 0 0 1020.4 - 0.0 - - 10 - - - -
21/07:30pm 14.6 CALM 0 0 1020.3 - 0.0 - - 10 - - - -
21/07:00pm 15.0 CALM 0 0 1019.9 - 0.0 - - 10 - - - -
21/06:30pm 15.9 CALM 0 0 1019.6 - 0.0 - - 10 - - - -
21/06:00pm 17.1 CALM 0 0 1019.2 - 0.0 - - 10 - - - -
21/05:30pm 18.7 CALM 0 0 1018.9 - 0.0 - - 10 - - - -
21/05:00pm 20.9 S 5 8 1018.5 - 0.0 - - 10 - - - -
21/04:30pm 21.9 SSE 6 8 1018.4 - 0.0 - - 10 - - - -
21/04:00pm 22.5 SSE 8 10 1018.2 - 0.0 - - 10 - - - -
21/03:30pm 22.9 S 9 11 1017.9 - 0.0 - - 10 - - - -
21/03:00pm 23.0 SSE 8 11 1017.9 - 0.0 - - 10 - - - -
21/02:30pm 23.3 SSE 8 11 1017.8 - 0.0 - - 10 - - - -
21/02:00pm 23.1 SSE 9 11 1018.0 - 0.0 - - 10 - - - -
21/01:30pm 23.2 SSE 8 13 1018.1 - 0.0 - - 10 - - - -
21/01:00pm 23.3 SSE 8 11 1018.2 - 0.0 - - 10 - - - -
21/12:30pm 24.3 SSE 5 8 1018.5 - 0.0 - - 10 - - - -
21/12:00pm 23.6 NE 3 7 1018.8 - 0.0 - - 10 - - - -
21/11:30am 23.3 ESE 5 7 1019.3 - 0.0 - - 10 - - - -
21/11:00am 22.7 SW 4 7 1019.7 - 0.0 - - 10 - - - -
21/10:30am 21.9 SSE 5 8 1019.9 - 0.0 - - 10 - - - -
21/10:00am 22.0 SSE 6 9 1020.1 - 0.0 - - 10 - - - -
21/09:30am 21.3 S 4 8 1020.4 - 0.0 - - 10 - - - -
21/09:00am 19.7 W 3 7 1020.5 - 0.0 - - 10 - - - -
21/08:30am 17.7 W 2 4 1020.4 - 0.0 - - 10 - - - -
21/08:00am 16.1 WSW 1 3 1020.0 - 0.0 - - 10 - - - -
21/07:30am 14.8 CALM 0 0 1019.6 - 0.0 - - 10 - - - -
21/07:00am 13.7 SSW 3 3 1019.2 - 0.0 - - 10 - - - -
21/06:30am 12.9 WSW 2 3 1018.8 - 0.0 - - 10 - - - -
21/06:00am 12.4 SW 2 6 1018.5 - 0.0 - - 10 - - - -
21/05:30am 13.7 WNW 5 7 1018.1 - 0.0 - - 10 - - - -
21/05:00am 13.9 W 6 7 1017.8 - 0.0 - - 10 - - - -
21/04:30am 12.3 WNW 4 6 1017.5 - 0.0 - - 10 - - - -
21/04:00am 12.9 NW 4 5 1017.3 - 0.0 - - 10 - - - -

Other Formats:

Comma delimited format used in spreadsheet applications
http://www.bom.gov.au/fwo/IDN60701/IDN60701.94786.axf

JavaScript Object Notation format (JSON) in row-major order
http://www.bom.gov.au/fwo/IDN60701/IDN60701.94786.json